Time;durP1;ratioP1;P1;durP2;ratioP2;P2;SDS_P1;SDS_P2;PMS_P1;PMS_P2;Temp;Humidity;BMP_temperature;BMP_pressure;BME280_temperature;BME280_humidity;BME280_pressure;Samples;Min_cycle;Max_cycle;Signal;HPM_P1;HPM_P2
2022/05/03 00:01:17;;;;;;;;;;;;;;;3.31;78.17;99714.94;5084321;28;20325;-78
2022/05/03 00:03:53;;;;;;;;;;;;;;;3.42;77.78;99721.03;5084913;28;19916;-77
2022/05/03 00:06:30;;;;;;;;;;;;;;;3.59;77.52;99723.63;5083517;28;19916;-77
2022/05/03 00:12:01;;;;;;;;;;;;;;;3.74;75.31;99722.81;5080934;28;19916;-78
2022/05/03 00:14:33;;;;;;;;;;;;;;;3.79;74.70;99721.13;5086636;28;19917;-78
2022/05/03 00:17:03;;;;;;;;;;;;;;;3.71;74.54;99721.97;5086980;28;19979;-79
2022/05/03 00:19:36;;;;;;;;;;;;;;;3.75;73.97;99714.22;5086715;28;19924;-79
2022/05/03 00:22:06;;;;;;;;;;;;;;;3.77;73.55;99716.78;5087030;28;19984;-79
2022/05/03 00:24:36;;;;;;;;;;;;;;;3.56;74.09;99720.19;5089166;28;19916;-78
2022/05/03 00:27:06;;;;;;;;;;;;;;;3.52;75.00;99715.88;5086064;28;19927;-78
2022/05/03 00:29:36;;;;;;;;;;;;;;;3.48;76.04;99716.72;5090082;28;19916;-78
2022/05/03 00:32:07;;;;;;;;;;;;;;;3.48;75.84;99714.16;5101217;28;19912;-78
2022/05/03 00:34:39;;;;;;;;;;;;;;;3.61;74.67;99721.06;5100747;28;19947;-78
2022/05/03 00:37:09;;;;;;;;;;;;;;;3.57;73.59;99714.16;5100621;28;19916;-78
2022/05/03 00:39:39;;;;;;;;;;;;;;;3.59;73.47;99722.78;5100575;28;19975;-79
2022/05/03 00:42:12;;;;;;;;;;;;;;;3.74;74.15;99722.81;5080325;28;19908;-80
2022/05/03 00:44:58;;;;;;;;;;;;;;;3.88;73.51;99730.63;5098548;28;19908;-78
2022/05/03 00:47:33;;;;;;;;;;;;;;;3.87;73.29;99722.00;5098992;28;19904;-80
2022/05/03 00:50:07;;;;;;;;;;;;;;;3.86;73.42;99717.69;5098716;28;19908;-80
2022/05/03 00:52:39;;;;;;;;;;;;;;;4.05;72.77;99722.91;5099315;28;19972;-79
2022/05/03 00:55:29;;;;;;;;;;;;;;;3.97;72.75;99725.47;5098795;28;19980;-81
2022/05/03 00:58:09;;;;;;;;;;;;;;;3.94;72.40;99717.69;5095974;28;19971;-80
2022/05/03 01:00:44;;;;;;;;;;;;;;;3.97;73.50;99719.41;5098902;28;19916;-80
2022/05/03 01:03:19;;;;;;;;;;;;;;;4.14;73.13;99724.63;5099014;28;19919;-82
2022/05/03 01:06:02;;;;;;;;;;;;;;;4.40;74.03;99724.66;5085899;28;19924;-82
2022/05/03 01:08:38;;;;;;;;;;;;;;;4.57;73.35;99728.09;5084492;28;19928;-83
2022/05/03 01:11:16;;;;;;;;;;;;;;;4.48;72.50;99728.94;5084083;28;19940;-82
2022/05/03 01:13:51;;;;;;;;;;;;;;;4.23;72.99;99724.66;5084031;28;20129;-84
2022/05/03 01:16:28;;;;;;;;;;;;;;;4.12;74.87;99729.81;5083246;28;19986;-85
2022/05/03 01:19:05;;;;;;;;;;;;;;;4.20;75.54;99737.56;5083141;28;19927;-84
2022/05/03 01:21:46;;;;;;;;;;;;;;;4.29;75.71;99733.28;5083457;28;20261;-84
2022/05/03 01:24:28;;;;;;;;;;;;;;;4.42;76.12;99733.25;5083405;28;19947;-82
2022/05/03 01:27:08;;;;;;;;;;;;;;;4.45;74.54;99735.88;5083737;28;19959;-84
2022/05/03 01:29:42;;;;;;;;;;;;;;;4.33;74.98;99729.81;5083588;28;19960;-84
2022/05/03 01:32:20;;;;;;;;;;;;;;;4.42;74.23;99733.25;5083509;28;19952;-83
2022/05/03 01:34:56;;;;;;;;;;;;;;;4.32;73.92;99738.44;5083004;28;19923;-84
2022/05/03 01:37:34;;;;;;;;;;;;;;;4.32;73.67;99738.44;5081353;28;19959;-83
2022/05/03 01:40:07;;;;;;;;;;;;;;;4.54;74.87;99733.25;5063402;28;19970;-82
2022/05/03 01:42:55;;;;;;;;;;;;;;;4.52;72.66;99740.19;5076376;28;19924;-82
2022/05/03 01:45:28;;;;;;;;;;;;;;;4.44;71.82;99741.88;5084670;28;19928;-81
2022/05/03 01:48:07;;;;;;;;;;;;;;;4.29;71.27;99733.28;5084907;28;20220;-83
2022/05/03 01:50:39;;;;;;;;;;;;;;;4.14;71.96;99741.00;5086366;28;19952;-84
2022/05/03 01:53:20;;;;;;;;;;;;;;;4.01;74.07;99747.00;5082598;28;19924;-85
2022/05/03 01:56:07;;;;;;;;;;;;;;;3.77;75.17;99753.88;5087121;28;19987;-84
2022/05/03 01:58:47;;;;;;;;;;;;;;;3.76;75.92;99746.94;5086798;28;20176;-82
2022/05/03 02:01:24;;;;;;;;;;;;;;;3.86;76.42;99743.53;5090971;28;19917;-80
2022/05/03 02:04:02;;;;;;;;;;;;;;;3.91;75.88;99735.78;5092571;28;19924;-81
2022/05/03 02:06:39;;;;;;;;;;;;;;;3.99;74.95;99733.22;5086783;28;20121;-81
2022/05/03 02:09:09;;;;;;;;;;;;;;;4.01;76.36;99741.84;5083057;28;19946;-81
2022/05/03 02:11:46;;;;;;;;;;;;;;;4.10;76.30;99736.69;5070433;28;19932;-80
2022/05/03 02:17:15;;;;;;;;;;;;;;;4.69;75.67;99717.75;5086875;28;19962;-79
2022/05/03 02:19:52;;;;;;;;;;;;;;;4.81;71.10;99731.50;5083555;28;19931;-80
2022/05/03 02:22:41;;;;;;;;;;;;;;;4.58;71.88;99724.63;5081155;28;20258;-81
2022/05/03 02:25:14;;;;;;;;;;;;;;;4.57;73.94;99711.69;5097873;28;19997;-80
2022/05/03 02:27:48;;;;;;;;;;;;;;;4.54;74.39;99728.06;5096192;28;19947;-84
2022/05/03 02:30:20;;;;;;;;;;;;;;;4.52;73.60;99729.84;5078019;28;19916;-79
2022/05/03 02:32:59;;;;;;;;;;;;;;;4.36;73.76;99728.09;5095531;28;19917;-83
2022/05/03 02:35:32;;;;;;;;;;;;;;;4.19;74.39;99728.94;5088923;28;19949;-83
2022/05/03 02:38:05;;;;;;;;;;;;;;;4.25;75.48;99723.78;5085257;28;19931;-82
2022/05/03 02:40:35;;;;;;;;;;;;;;;4.35;73.70;99731.56;5082430;28;20183;-83
2022/05/03 02:43:06;;;;;;;;;;;;;;;4.46;73.62;99729.81;5091246;28;19948;-83
2022/05/03 02:45:43;;;;;;;;;;;;;;;4.55;73.03;99719.47;5091610;28;19930;-82
2022/05/03 02:48:18;;;;;;;;;;;;;;;4.78;72.29;99718.59;5082266;28;19916;-83
2022/05/03 02:50:53;;;;;;;;;;;;;;;5.16;70.75;99719.34;5084187;28;19915;-83
2022/05/03 02:53:29;;;;;;;;;;;;;;;5.04;69.62;99705.56;5090001;28;19923;-83
2022/05/03 02:56:04;;;;;;;;;;;;;;;5.02;69.05;99700.41;5081887;28;19922;-83
2022/05/03 02:58:52;;;;;;;;;;;;;;;4.87;70.38;99703.91;5084402;28;19939;-83
2022/05/03 03:04:33;;;;;;;;;;;;;;;5.13;69.37;99698.63;5090601;28;19982;-81
2022/05/03 03:07:04;;;;;;;;;;;;;;;5.40;69.89;99704.59;5098237;28;19916;-83
2022/05/03 03:09:40;;;;;;;;;;;;;;;5.48;67.70;99709.72;5082932;28;20204;-83
2022/05/03 03:12:16;;;;;;;;;;;;;;;5.04;67.10;99714.22;5086933;28;20189;-82
2022/05/03 03:14:48;;;;;;;;;;;;;;;4.89;67.02;99714.22;5082695;28;19916;-83
2022/05/03 03:17:20;;;;;;;;;;;;;;;4.92;65.70;99709.94;5088329;28;19923;-82
2022/05/03 03:20:08;;;;;;;;;;;;;;;5.05;67.33;99708.16;5080905;28;20159;-83
2022/05/03 03:22:40;;;;;;;;;;;;;;;5.20;67.18;99717.63;5090557;28;19970;-82
2022/05/03 03:25:13;;;;;;;;;;;;;;;5.10;65.12;99711.59;5093644;28;19928;-81
2022/05/03 03:27:44;;;;;;;;;;;;;;;4.99;65.89;99705.56;5084768;28;19916;-83
2022/05/03 03:30:21;;;;;;;;;;;;;;;5.10;65.76;99709.00;5081042;28;19916;-79
2022/05/03 03:32:52;;;;;;;;;;;;;;;5.13;65.85;99709.00;5084296;28;19959;-79
2022/05/03 03:35:22;;;;;;;;;;;;;;;5.17;65.32;99710.72;5083739;28;19931;-82
2022/05/03 03:37:57;;;;;;;;;;;;;;;5.37;65.72;99712.38;5089651;28;19923;-80
2022/05/03 03:40:27;;;;;;;;;;;;;;;5.59;65.08;99708.81;5082214;28;19931;-82
2022/05/03 03:42:58;;;;;;;;;;;;;;;5.65;65.81;99705.31;5083916;28;20255;-81
2022/05/03 03:45:28;;;;;;;;;;;;;;;5.50;64.71;99698.50;5060866;28;19924;-81
2022/05/03 03:47:59;;;;;;;;;;;;;;;5.38;65.43;99708.91;5081437;28;20401;-80
2022/05/03 03:50:29;;;;;;;;;;;;;;;5.04;65.15;99714.22;5078611;28;19959;-80
2022/05/03 03:53:02;;;;;;;;;;;;;;;5.05;66.13;99715.94;5077337;28;19955;-79
2022/05/03 03:55:32;;;;;;;;;;;;;;;5.00;65.85;99717.66;5084352;28;19916;-80
2022/05/03 03:58:03;;;;;;;;;;;;;;;5.13;65.05;99705.56;5080509;28;19920;-80
2022/05/03 04:00:33;;;;;;;;;;;;;;;5.08;65.55;99721.09;5086379;28;19999;-81
2022/05/03 04:03:05;;;;;;;;;;;;;;;5.11;66.28;99704.69;5089973;28;20116;-80
2022/05/03 04:05:36;;;;;;;;;;;;;;;5.04;66.70;99703.88;5090411;28;19916;-80
2022/05/03 04:08:08;;;;;;;;;;;;;;;5.05;66.27;99721.13;5089227;28;20220;-81
2022/05/03 04:10:38;;;;;;;;;;;;;;;5.16;66.59;99713.31;5083303;28;19924;-80
2022/05/03 04:13:08;;;;;;;;;;;;;;;5.16;63.24;99710.72;5090218;28;19916;-81
2022/05/03 04:15:38;;;;;;;;;;;;;;;5.16;65.00;99716.75;5088409;28;19916;-81
2022/05/03 04:18:08;;;;;;;;;;;;;;;4.89;64.10;99715.13;5088025;28;19931;-80
2022/05/03 04:20:38;;;;;;;;;;;;;;;4.91;64.91;99712.50;5089921;28;19939;-83
2022/05/03 04:23:11;;;;;;;;;;;;;;;4.93;64.11;99723.72;5081272;28;19946;-82
2022/05/03 04:25:40;;;;;;;;;;;;;;;4.84;64.71;99715.97;5085095;28;19930;-83
2022/05/03 04:28:10;;;;;;;;;;;;;;;4.97;65.38;99722.88;5092451;28;19916;-82
2022/05/03 04:30:40;;;;;;;;;;;;;;;5.29;65.32;99719.28;5077250;28;19924;-83
2022/05/03 04:33:10;;;;;;;;;;;;;;;5.23;65.71;99720.19;5085691;28;19917;-83
2022/05/03 04:35:48;;;;;;;;;;;;;;;5.23;65.15;99719.34;5086370;28;19974;-81
2022/05/03 04:38:19;;;;;;;;;;;;;;;5.23;63.93;99734.88;5092277;28;19954;-81
2022/05/03 04:40:49;;;;;;;;;;;;;;;4.87;64.47;99726.34;5084545;28;19924;-80
2022/05/03 04:43:19;;;;;;;;;;;;;;;4.82;64.29;99722.88;5083815;28;19924;-81
2022/05/03 04:45:49;;;;;;;;;;;;;;;4.80;64.85;99729.81;5095604;28;20248;-81
2022/05/03 04:48:21;;;;;;;;;;;;;;;4.73;64.89;99721.16;5085612;28;19962;-81
2022/05/03 04:50:51;;;;;;;;;;;;;;;4.72;64.16;99728.09;5089171;28;19920;-82
2022/05/03 04:53:22;;;;;;;;;;;;;;;4.85;63.04;99722.88;5090325;28;20291;-82
2022/05/03 04:55:52;;;;;;;;;;;;;;;5.04;62.90;99737.53;5090267;28;19976;-82
2022/05/03 04:58:22;;;;;;;;;;;;;;;5.04;63.04;99740.13;5086063;28;19917;-82
2022/05/03 05:00:52;;;;;;;;;;;;;;;5.15;61.99;99733.16;5087924;28;19976;-82
2022/05/03 05:03:22;;;;;;;;;;;;;;;5.07;62.90;99734.94;5083707;28;20212;-82
2022/05/03 05:05:52;;;;;;;;;;;;;;;5.25;62.73;99728.81;5089536;28;19977;-82
2022/05/03 05:08:24;;;;;;;;;;;;;;;5.31;61.46;99730.53;5089318;28;19960;-82
2022/05/03 05:10:54;;;;;;;;;;;;;;;5.28;62.36;99722.78;5095321;28;20368;-82
2022/05/03 05:13:24;;;;;;;;;;;;;;;5.36;62.26;99721.00;5089088;28;20284;-82
2022/05/03 05:15:55;;;;;;;;;;;;;;;5.65;62.56;99728.66;5095393;28;20003;-82
2022/05/03 05:18:25;;;;;;;;;;;;;;;5.53;60.79;99716.59;5092692;28;20151;-82
2022/05/03 05:20:55;;;;;;;;;;;;;;;5.28;62.14;99712.41;5098403;28;19947;-81
2022/05/03 05:23:30;;;;;;;;;;;;;;;5.35;62.25;99719.28;5089674;28;19924;-81
2022/05/03 05:26:00;;;;;;;;;;;;;;;5.54;61.63;99713.16;5089657;28;20208;-81
2022/05/03 05:28:30;;;;;;;;;;;;;;;5.39;60.82;99715.81;5089778;28;19924;-81
2022/05/03 05:31:00;;;;;;;;;;;;;;;5.43;62.05;99717.53;5093249;28;19970;-81
2022/05/03 05:33:30;;;;;;;;;;;;;;;5.50;61.93;99719.22;5093129;28;19939;-82
2022/05/03 05:36:00;;;;;;;;;;;;;;;5.46;61.61;99722.69;5097804;28;19924;-81
2022/05/03 05:38:32;;;;;;;;;;;;;;;5.35;61.43;99714.09;5090871;28;19916;-82
2022/05/03 05:41:12;;;;;;;;;;;;;;;5.27;62.25;99710.69;5093707;28;19924;-81
2022/05/03 05:43:42;;;;;;;;;;;;;;;5.24;62.34;99727.13;5089627;28;20208;-82
2022/05/03 05:46:12;;;;;;;;;;;;;;;5.32;62.67;99709.81;5088440;28;20279;-82
2022/05/03 05:48:42;;;;;;;;;;;;;;;5.50;63.00;99714.03;5085698;28;19916;-82
2022/05/03 05:51:13;;;;;;;;;;;;;;;5.60;63.30;99715.72;5084906;28;19924;-81
2022/05/03 05:53:44;;;;;;;;;;;;;;;5.65;61.51;99722.63;5086428;28;19924;-82
2022/05/03 05:56:14;;;;;;;;;;;;;;;5.39;62.14;99720.97;5090119;28;19920;-81
2022/05/03 05:58:48;;;;;;;;;;;;;;;5.22;62.43;99717.59;5095453;28;20105;-79
2022/05/03 06:01:18;;;;;;;;;;;;;;;5.23;63.49;99725.38;5090621;28;20205;-80
2022/05/03 06:03:48;;;;;;;;;;;;;;;5.10;63.68;99714.19;5085963;28;19917;-80
2022/05/03 06:06:18;;;;;;;;;;;;;;;5.04;65.10;99722.00;5081415;28;20132;-79
2022/05/03 06:08:52;;;;;;;;;;;;;;;4.91;65.86;99728.03;5082136;28;19916;-79
2022/05/03 06:11:21;;;;;;;;;;;;;;;4.70;65.54;99724.63;5088956;28;20286;-80
2022/05/03 06:13:54;;;;;;;;;;;;;;;4.56;66.88;99735.84;5085893;28;19983;-79
2022/05/03 06:16:24;;;;;;;;;;;;;;;4.64;67.67;99739.28;5084413;28;19925;-80
2022/05/03 06:18:54;;;;;;;;;;;;;;;4.66;66.72;99742.75;5087386;28;20324;-80
2022/05/03 06:21:26;;;;;;;;;;;;;;;4.58;67.33;99740.16;5083979;28;19924;-80
2022/05/03 06:23:58;;;;;;;;;;;;;;;4.54;66.85;99743.59;5086267;28;19967;-82
2022/05/03 06:26:28;;;;;;;;;;;;;;;4.52;67.62;99741.03;5086038;28;19931;-83
2022/05/03 06:28:59;;;;;;;;;;;;;;;4.37;67.53;99734.97;5084169;28;19962;-82
2022/05/03 06:31:32;;;;;;;;;;;;;;;4.21;68.60;99745.31;5084955;28;19946;-82
2022/05/03 06:34:02;;;;;;;;;;;;;;;4.21;68.59;99745.31;5088343;28;19951;-80
2022/05/03 06:36:33;;;;;;;;;;;;;;;4.21;68.76;99750.50;5082584;28;19932;-82
2022/05/03 06:39:05;;;;;;;;;;;;;;;4.03;68.76;99765.97;5088957;28;19928;-82
2022/05/03 06:41:35;;;;;;;;;;;;;;;3.81;69.59;99759.88;5086511;28;19924;-81
2022/05/03 06:44:05;;;;;;;;;;;;;;;3.79;70.43;99764.19;5086475;28;19954;-82
2022/05/03 06:46:35;;;;;;;;;;;;;;;3.66;70.18;99765.88;5085218;28;19922;-81
2022/05/03 06:49:05;;;;;;;;;;;;;;;3.54;70.49;99761.50;5086188;28;19916;-81
2022/05/03 06:51:35;;;;;;;;;;;;;;;3.57;71.07;99773.56;5084453;28;20196;-81
2022/05/03 06:54:07;;;;;;;;;;;;;;;3.65;70.83;99774.50;5087043;28;19923;-81
2022/05/03 06:56:37;;;;;;;;;;;;;;;3.48;70.98;99774.41;5079648;28;20081;-81
2022/05/03 06:59:08;;;;;;;;;;;;;;;3.55;71.56;99772.72;5081634;28;19916;-80
2022/05/03 07:01:38;;;;;;;;;;;;;;;3.56;71.31;99774.44;5085757;28;19916;-79
2022/05/03 07:04:13;;;;;;;;;;;;;;;3.60;71.71;99771.03;5084920;28;19932;-83
2022/05/03 07:06:44;;;;;;;;;;;;;;;3.58;71.71;99783.06;5083484;28;19928;-80
2022/05/03 07:09:16;;;;;;;;;;;;;;;3.56;71.85;99784.78;5082131;28;19931;-82
2022/05/03 07:11:46;;;;;;;;;;;;;;;3.56;72.17;99784.78;5081640;28;19922;-81
2022/05/03 07:14:16;;;;;;;;;;;;;;;3.53;72.75;99789.94;5079490;28;20217;-81
2022/05/03 07:16:47;;;;;;;;;;;;;;;3.24;73.53;99788.06;5087212;28;19924;-81
2022/05/03 07:24:52;;;;;;;;;;;;;;;2.84;75.86;99787.78;5083069;28;20022;-82
2022/05/03 07:27:22;;;;;;;;;;;;;;;2.86;75.22;99791.25;5080948;28;19979;-82
2022/05/03 07:29:52;;;;;;;;;;;;;;;2.87;75.51;99787.84;5085884;28;19916;-81
2022/05/03 07:32:22;;;;;;;;;;;;;;;2.78;75.47;99792.94;5087918;28;19916;-85
2022/05/03 07:35:57;;;;;;;;;;;;;;;2.81;75.90;99805.84;5160839;27;20140;-58
2022/05/03 07:38:28;;;;;;;;;;;;;;;2.83;75.69;99796.41;5151020;27;19969;-55
2022/05/03 07:40:59;;;;;;;;;;;;;;;2.82;75.54;99797.25;5150285;27;19965;-57
2022/05/03 07:43:29;;;;;;;;;;;;;;;2.76;75.55;99802.38;5149779;27;19923;-58
2022/05/03 07:45:59;;;;;;;;;;;;;;;2.68;76.79;99807.47;5147346;27;20152;-58
2022/05/03 07:48:30;;;;;;;;;;;;;;;2.52;76.81;99806.47;5148994;27;19926;-58
2022/05/03 07:51:02;;;;;;;;;;;;;;;2.45;77.38;99815.00;5150464;27;20275;-58
2022/05/03 07:53:32;;;;;;;;;;;;;;;2.31;78.38;99811.44;5150641;27;20199;-59
2022/05/03 07:56:02;;;;;;;;;;;;;;;2.17;79.10;99813.84;5150369;27;19928;-58
2022/05/03 07:58:32;;;;;;;;;;;;;;;2.01;80.23;99812.84;5149641;27;19928;-57
2022/05/03 08:01:02;;;;;;;;;;;;;;;1.99;80.56;99830.00;5149617;27;19965;-58
2022/05/03 08:03:33;;;;;;;;;;;;;;;1.91;81.54;99823.88;5149761;27;20222;-58
2022/05/03 08:06:05;;;;;;;;;;;;;;;1.83;81.92;99822.94;5150687;27;19927;-57
2022/05/03 08:08:35;;;;;;;;;;;;;;;1.83;82.45;99822.94;5148945;27;20835;-59
2022/05/03 08:11:05;;;;;;;;;;;;;;;1.75;82.99;99824.53;5149736;27;20966;-56
2022/05/03 08:13:37;;;;;;;;;;;;;;;1.67;82.91;99822.75;5149855;27;19996;-57
2022/05/03 08:16:17;;;;;;;;;;;;;;;1.68;82.81;99821.91;5149556;27;19966;-58
2022/05/03 08:18:48;;;;;;;;;;;;;;;1.71;82.74;99829.66;5149280;27;19919;-57
2022/05/03 08:21:19;;;;;;;;;;;;;;;1.70;83.08;99837.38;5150280;27;19943;-57
2022/05/03 08:23:49;;;;;;;;;;;;;;;1.65;83.25;99834.75;5149450;27;19927;-57
2022/05/03 08:26:19;;;;;;;;;;;;;;;1.70;83.40;99838.25;5148077;27;19994;-58
2022/05/03 08:28:49;;;;;;;;;;;;;;;1.65;83.30;99834.75;5150676;27;19919;-58
2022/05/03 08:31:19;;;;;;;;;;;;;;;1.64;83.02;99838.16;5148846;27;19927;-58
2022/05/03 08:33:49;;;;;;;;;;;;;;;1.60;83.12;99840.66;5150734;27;19927;-58
2022/05/03 08:36:21;;;;;;;;;;;;;;;1.62;83.38;99833.81;5150604;27;19934;-57
2022/05/03 08:44:24;;;;;;;;;;;;;;;1.63;83.16;99849.31;5148716;27;19954;-58
2022/05/03 08:46:55;;;;;;;;;;;;;;;1.69;83.21;99841.66;5137297;27;19920;-57
2022/05/03 08:49:26;;;;;;;;;;;;;;;1.63;83.06;99851.88;5135435;27;19970;-57
2022/05/03 08:51:58;;;;;;;;;;;;;;;1.65;83.26;99852.78;5137737;27;19981;-58
2022/05/03 08:54:28;;;;;;;;;;;;;;;1.61;82.85;99848.41;5136789;27;19928;-58
2022/05/03 08:56:58;;;;;;;;;;;;;;;1.59;83.25;99850.09;5137291;27;19928;-59
2022/05/03 08:59:28;;;;;;;;;;;;;;;1.61;83.37;99852.72;5135174;27;19934;-57
2022/05/03 09:01:58;;;;;;;;;;;;;;;1.57;83.32;99856.94;5132603;27;19982;-58
2022/05/03 09:04:28;;;;;;;;;;;;;;;1.54;83.34;99862.06;5133459;27;20206;-58
2022/05/03 09:06:59;;;;;;;;;;;;;;;1.58;83.36;99863.84;5134732;27;19934;-59
2022/05/03 09:09:29;;;;;;;;;;;;;;;1.61;83.47;99868.16;5134648;27;19956;-58
2022/05/03 09:12:00;;;;;;;;;;;;;;;1.74;83.56;99870.03;5133971;27;19934;-57
2022/05/03 09:14:36;;;;;;;;;;;;;;;1.64;82.93;99874.22;5134552;27;20101;-57
2022/05/03 09:17:06;;;;;;;;;;;;;;;1.57;83.28;99876.69;5131592;27;19958;-57
2022/05/03 09:19:36;;;;;;;;;;;;;;;1.55;83.42;99879.25;5133291;27;19919;-57
2022/05/03 09:24:55;;;;;;;;;;;;;;;1.35;83.47;99885.81;5134852;27;19927;-57
2022/05/03 09:27:26;;;;;;;;;;;;;;;1.31;83.80;99884.03;5134293;27;19931;-57
2022/05/03 09:30:03;;;;;;;;;;;;;;;1.33;84.11;99882.38;5135660;27;20260;-57
2022/05/03 09:32:36;;;;;;;;;;;;;;;1.33;84.12;99890.09;5135329;27;19927;-59
2022/05/03 09:35:07;;;;;;;;;;;;;;;1.31;84.41;99884.03;5131487;27;19958;-58
2022/05/03 09:37:41;;;;;;;;;;;;;;;1.32;84.50;99890.91;5131696;27;20218;-58
2022/05/03 09:40:12;;;;;;;;;;;;;;;1.34;84.65;99889.22;5131999;27;19990;-58
2022/05/03 09:42:52;;;;;;;;;;;;;;;1.37;84.40;99894.41;5132324;27;19963;-58
2022/05/03 09:45:23;;;;;;;;;;;;;;;1.31;84.48;99904.63;5135039;27;19990;-59
2022/05/03 09:47:53;;;;;;;;;;;;;;;1.27;84.61;99909.75;5135911;27;19935;-58
2022/05/03 09:50:27;;;;;;;;;;;;;;;1.26;84.99;99913.16;5130239;27;20261;-58
2022/05/03 09:52:59;;;;;;;;;;;;;;;1.28;84.83;99911.47;5129760;27;19959;-59
2022/05/03 09:55:33;;;;;;;;;;;;;;;1.23;84.70;99902.81;5131940;27;19986;-58
2022/05/03 09:58:04;;;;;;;;;;;;;;;1.19;85.14;99906.16;5133621;27;19923;-59
2022/05/03 10:00:35;;;;;;;;;;;;;;;1.19;85.29;99911.31;5136825;27;19970;-59
2022/05/03 10:03:06;;;;;;;;;;;;;;;1.15;85.05;99909.56;5136030;27;19919;-58
2022/05/03 10:05:37;;;;;;;;;;;;;;;1.14;85.22;99924.97;5136167;27;19923;-57
2022/05/03 10:08:11;;;;;;;;;;;;;;;1.19;85.51;99925.91;5136396;27;20232;-59
2022/05/03 10:10:56;;;;;;;;;;;;;;;1.18;85.66;99930.19;5134797;27;19919;-58
2022/05/03 10:13:27;;;;;;;;;;;;;;;1.14;85.29;99927.53;5133957;27;19942;-58
2022/05/03 10:21:37;;;;;;;;;;;;;;;1.19;86.02;99947.34;5134305;27;20231;-58
2022/05/03 10:24:10;;;;;;;;;;;;;;;1.21;86.04;99950.81;5134352;27;19928;-58
2022/05/03 10:26:57;;;;;;;;;;;;;;;1.16;85.80;99947.31;5134405;27;19970;-58
2022/05/03 10:29:28;;;;;;;;;;;;;;;1.11;85.90;99956.66;5134115;27;19927;-58
2022/05/03 10:32:02;;;;;;;;;;;;;;;1.14;86.20;99954.13;5133761;27;19920;-59
2022/05/03 10:34:46;;;;;;;;;;;;;;;1.13;86.00;99962.69;5133333;27;20261;-58
2022/05/03 10:37:17;;;;;;;;;;;;;;;1.20;86.29;99954.25;5133156;27;19994;-57
2022/05/03 10:39:51;;;;;;;;;;;;;;;1.24;86.60;99961.16;5132769;27;19923;-58
2022/05/03 10:42:23;;;;;;;;;;;;;;;1.27;86.33;99961.22;5133533;27;19986;-59
2022/05/03 10:45:03;;;;;;;;;;;;;;;1.20;86.02;99955.91;5133811;27;19925;-59
2022/05/03 10:47:47;;;;;;;;;;;;;;;1.15;85.99;99955.88;5134139;27;19926;-59
2022/05/03 10:50:21;;;;;;;;;;;;;;;1.18;86.34;99955.06;5133771;27;20203;-58
2022/05/03 10:53:09;;;;;;;;;;;;;;;1.15;86.13;99955.88;5133540;27;19934;-59
2022/05/03 10:56:00;;;;;;;;;;;;;;;1.12;86.22;99960.09;5132962;27;19930;-59
2022/05/03 10:58:32;;;;;;;;;;;;;;;1.10;86.25;99962.66;5132486;27;19986;-59
2022/05/03 11:01:03;;;;;;;;;;;;;;;1.04;86.05;99967.69;5132277;27;19929;-60
2022/05/03 11:03:33;;;;;;;;;;;;;;;1.01;86.43;99962.47;5135171;27;20144;-59
2022/05/03 11:06:22;;;;;;;;;;;;;;;1.04;86.49;99968.53;5131950;27;19994;-59
2022/05/03 11:09:09;;;;;;;;;;;;;;;1.09;86.76;99971.19;5131780;27;19919;-58
2022/05/03 11:12:01;;;;;;;;;;;;;;;1.11;86.55;99968.66;5131538;27;19924;-59
2022/05/03 11:14:47;;;;;;;;;;;;;;;1.06;86.63;99976.28;5134872;27;19969;-59
2022/05/03 11:17:18;;;;;;;;;;;;;;;1.08;86.71;99975.47;5133796;27;19951;-59
2022/05/03 11:19:50;;;;;;;;;;;;;;;1.13;86.57;99980.72;5135121;27;19931;-59
2022/05/03 11:22:22;;;;;;;;;;;;;;;1.09;86.54;99976.34;5132249;27;19926;-59
2022/05/03 11:24:53;;;;;;;;;;;;;;;1.15;86.63;99981.59;5133058;27;20481;-59
2022/05/03 11:27:25;;;;;;;;;;;;;;;1.20;86.37;99985.13;5132876;27;20270;-59
2022/05/03 11:29:58;;;;;;;;;;;;;;;1.26;86.29;99980.06;5129329;27;19923;-59
2022/05/03 11:32:29;;;;;;;;;;;;;;;1.25;86.16;99978.34;5132842;27;19982;-59
2022/05/03 11:35:03;;;;;;;;;;;;;;;1.27;85.94;99992.13;5133226;28;19956;-59
2022/05/03 11:37:33;;;;;;;;;;;;;;;1.28;86.19;99993.84;5132300;28;20045;-59
2022/05/03 11:40:05;;;;;;;;;;;;;;;1.32;86.06;99988.72;5132313;28;19957;-60
2022/05/03 11:42:40;;;;;;;;;;;;;;;1.34;85.67;99987.06;5131909;28;19927;-59
2022/05/03 11:45:11;;;;;;;;;;;;;;;1.36;85.70;99990.53;5133459;28;19923;-60
2022/05/03 11:47:42;;;;;;;;;;;;;;;1.29;85.44;99990.41;5133409;28;20114;-60
2022/05/03 11:55:58;;;;;;;;;;;;;;;1.23;85.38;99984.31;5133046;28;19935;-59
2022/05/03 11:56:04;;;;;;;;;;;;;;;1.12;85.56;99991.81;5132320;28;20121;-60
2022/05/03 11:58:37;;;;;;;;;;;;;;;1.15;85.73;99986.75;5132365;28;20209;-59
2022/05/03 12:01:13;;;;;;;;;;;;;;;1.21;85.95;99986.84;5132135;28;19965;-60
2022/05/03 12:03:47;;;;;;;;;;;;;;;1.24;85.65;99986.88;5131804;28;19931;-60
2022/05/03 12:06:17;;;;;;;;;;;;;;;1.29;85.73;99995.56;5133507;28;19928;-60
2022/05/03 12:10:21;;;;;;;1.77;1.00;;;;;;;1.16;85.15;99973.03;5089538;27;2055398;-83
2022/05/03 12:13:07;;;;;;;1.52;1.20;;;;;;;0.68;85.01;99891.63;5127967;27;20215;-84
2022/05/03 12:15:40;;;;;;;1.95;1.20;;;;;;;1.14;85.15;99972.13;5146606;27;20044;-80
2022/05/03 12:18:15;;;;;;;4.38;1.70;;;;;;;1.11;85.42;99966.94;5140084;27;20047;-83
2022/05/03 12:20:51;;;;;;;8.93;3.63;;;;;;;1.02;85.25;99959.06;5138681;27;20196;-82
2022/05/03 12:23:23;;;;;;;1.65;1.02;;;;;;;0.78;85.24;99929.50;5146532;27;20086;-82
2022/05/03 12:25:57;;;;;;;1.02;0.93;;;;;;;0.58;85.61;99889.72;5149723;27;20040;-82
2022/05/03 12:28:37;;;;;;;1.00;0.90;;;;;;;0.96;85.62;99971.84;5143831;27;20106;-83
2022/05/03 12:31:09;;;;;;;1.55;1.05;;;;;;;0.16;85.28;99860.66;5145189;27;20039;-83
2022/05/03 12:33:48;;;;;;;4.18;1.52;;;;;;;1.05;86.09;99979.72;5149940;27;20047;-85
2022/05/03 12:36:38;;;;;;;1.70;1.25;;;;;;;1.03;85.67;99981.41;5142656;27;20085;-84
2022/05/03 12:39:17;;;;;;;3.17;1.38;;;;;;;1.02;85.57;99970.25;5139518;27;20052;-84
2022/05/03 12:42:10;;;;;;;2.17;1.38;;;;;;;0.97;85.73;99976.13;5145659;27;20051;-85
2022/05/03 12:44:51;;;;;;;2.35;1.58;;;;;;;0.93;85.90;99969.22;5146777;27;20054;-85
2022/05/03 12:47:23;;;;;;;2.65;1.50;;;;;;;0.92;85.76;99975.19;5143675;27;20510;-83
2022/05/03 12:50:03;;;;;;;2.38;1.50;;;;;;;0.92;86.07;99967.47;5146323;27;20044;-85
2022/05/03 12:52:33;;;;;;;;;;;;;;;0.84;86.20;99975.03;5145433;27;20076;-85
2022/05/03 12:55:32;;;;;;;4.95;2.40;;;;;;;-0.04;86.19;99857.72;5141940;27;19923;-85
2022/05/03 12:58:25;;;;;;;3.10;2.30;;;;;;;-0.20;86.30;99844.53;5130292;27;20402;-86
2022/05/03 13:01:06;;;;;;;8.98;5.63;;;;;;;0.73;86.82;99979.13;5135091;27;20044;-86
2022/05/03 13:03:47;;;;;;;5.50;4.00;;;;;;;-0.05;86.86;99835.44;5145317;27;20040;-85
2022/05/03 13:06:34;;;;;;;17.70;4.38;;;;;;;0.39;86.81;99915.06;5141852;27;20059;-86
2022/05/03 13:09:06;;;;;;;11.50;3.40;;;;;;;-0.25;86.55;99822.22;5139526;27;20050;-84
2022/05/03 13:11:48;;;;;;;16.48;5.13;;;;;;;0.17;86.68;99903.50;5143038;27;20390;-85
2022/05/03 13:14:28;;;;;;;10.02;5.13;;;;;;;0.59;87.19;99984.84;5139452;27;20268;-85
2022/05/03 13:17:10;;;;;;;7.72;4.35;;;;;;;0.65;87.33;99979.00;5141911;27;20070;-86
2022/05/03 13:20:07;;;;;;;98.40;6.95;;;;;;;-0.03;87.47;99879.97;5141778;27;20045;-86
2022/05/03 13:22:39;;;;;;;76.45;6.95;;;;;;;0.54;87.56;99976.19;5122679;27;20110;-84
2022/05/03 13:25:11;;;;;;;50.33;6.93;;;;;;;0.55;87.87;99979.63;5128375;27;20047;-85
2022/05/03 13:27:43;;;;;;;19.40;6.18;;;;;;;0.59;87.76;99995.16;5125088;27;20110;-79
2022/05/03 13:30:19;;;;;;;22.33;6.47;;;;;;;0.58;88.10;99982.28;5111936;28;20075;-78
2022/05/03 13:32:49;;;;;;;28.80;7.25;;;;;;;0.72;88.06;99995.38;5108801;27;20217;-79
2022/05/03 13:40:56;;;;;;;149.32;9.15;;;;;;;0.62;87.61;99994.34;5123997;28;20115;-80
2022/05/03 13:43:28;;;;;;;168.68;10.98;;;;;;;0.31;88.06;99937.19;5124106;28;20058;-80
2022/05/03 13:46:00;;;;;;;87.95;9.10;;;;;;;0.52;87.89;99971.84;5123246;28;20054;-80
2022/05/03 13:48:31;;;;;;;52.45;8.27;;;;;;;0.63;88.18;99990.94;5124332;28;20044;-79
2022/05/03 13:51:06;;;;;;;32.65;7.55;;;;;;;0.68;88.44;99998.75;5124313;28;20048;-79
2022/05/03 13:53:42;;;;;;;26.08;8.45;;;;;;;0.80;88.48;99999.84;5124055;28;20239;-80
2022/05/03 13:56:14;;;;;;;15.40;7.80;;;;;;;0.88;88.51;100002.56;5124338;28;20050;-80
2022/05/03 13:58:45;;;;;;;15.55;7.70;;;;;;;0.97;88.55;100007.00;5124021;28;20051;-79